Time;durP1;ratioP1;P1;durP2;ratioP2;P2;SDS_P1;SDS_P2;PMS_P1;PMS_P2;Temp;Humidity;BMP_temperature;BMP_pressure;BME280_temperature;BME280_humidity;BME280_pressure;Samples;Min_cycle;Max_cycle;Signal;HPM_P1;HPM_P2
2021/08/24 00:00:48;;;;;;;9.70;6.05;;;;;;;;;;4364039;32;20580;-71
2021/08/24 00:03:14;;;;;;;7.28;5.32;;;;;;;;;;4362726;32;20510;-71
2021/08/24 00:05:41;;;;;;;7.65;6.30;;;;;;;;;;4362720;32;20104;-71
2021/08/24 00:08:08;;;;;;;8.35;5.15;;;;;;;;;;4337860;32;20461;-71
2021/08/24 00:11:02;;;;;;;10.20;5.12;;;;;;;;;;4350258;32;20449;-71
2021/08/24 00:13:29;;;;;;;9.38;5.22;;;;;;;;;;4360445;32;20516;-72
2021/08/24 00:15:56;;;;;;;9.70;5.53;;;;;;;;;;4350325;32;20086;-71
2021/08/24 00:18:23;;;;;;;7.12;4.87;;;;;;;;;;4337836;32;20174;-72
2021/08/24 00:20:51;;;;;;;8.95;5.20;;;;;;;;;;4349989;32;20108;-72
2021/08/24 00:23:20;;;;;;;7.70;5.15;;;;;;;;;;4350358;32;20165;-72
2021/08/24 00:25:48;;;;;;;7.05;4.80;;;;;;;;;;4362296;32;20074;-71
2021/08/24 00:28:15;;;;;;;8.88;5.40;;;;;;;;;;4350354;32;20095;-71
2021/08/24 00:30:41;;;;;;;7.97;5.00;;;;;;;;;;4363374;32;20102;-72
2021/08/24 00:33:11;;;;;;;7.80;5.37;;;;;;;;;;4363859;32;20602;-72
2021/08/24 00:35:39;;;;;;;8.68;5.28;;;;;;;;;;4338135;32;20086;-71
2021/08/24 00:38:10;;;;;;;10.55;5.22;;;;;;;;;;4349802;32;20081;-72
2021/08/24 00:40:36;;;;;;;7.90;5.28;;;;;;;;;;4349983;32;20505;-71
2021/08/24 00:43:04;;;;;;;9.57;5.90;;;;;;;;;;4350063;32;20082;-72
2021/08/24 00:45:31;;;;;;;7.20;5.07;;;;;;;;;;4362120;32;20124;-72
2021/08/24 00:47:58;;;;;;;8.55;4.90;;;;;;;;;;4337594;32;20097;-71
2021/08/24 00:50:29;;;;;;;7.65;4.80;;;;;;;;;;4349675;32;20448;-72
2021/08/24 00:53:11;;;;;;;7.03;4.87;;;;;;;;;;4349822;32;20445;-72
2021/08/24 00:55:40;;;;;;;7.75;4.87;;;;;;;;;;4337936;32;20093;-72
2021/08/24 00:58:10;;;;;;;6.62;4.00;;;;;;;;;;4337795;32;20146;-72
2021/08/24 01:00:36;;;;;;;7.53;4.70;;;;;;;;;;4363676;32;20076;-71
2021/08/24 01:03:15;;;;;;;6.47;4.50;;;;;;;;;;4349624;32;20529;-72
2021/08/24 01:05:42;;;;;;;6.55;4.68;;;;;;;;;;4338612;32;20129;-72
2021/08/24 01:08:39;;;;;;;7.47;4.53;;;;;;;;;;4363059;32;20089;-72
2021/08/24 01:11:27;;;;;;;8.07;4.53;;;;;;;;;;4362217;32;20525;-71
2021/08/24 01:14:31;;;;;;;6.93;4.60;;;;;;;;;;4351479;32;20180;-71
2021/08/24 01:17:13;;;;;;;6.93;5.12;;;;;;;;;;4368519;32;20093;-72
2021/08/24 01:19:58;;;;;;;6.87;4.82;;;;;;;;;;4364899;32;20085;-71
2021/08/24 01:23:05;;;;;;;8.10;4.60;;;;;;;;;;4377915;32;20070;-72
2021/08/24 01:26:03;;;;;;;8.70;4.40;;;;;;;;;;4366798;32;20185;-72
2021/08/24 01:28:48;;;;;;;6.82;3.90;;;;;;;;;;4343484;32;20158;-74
2021/08/24 01:31:42;;;;;;;8.13;4.43;;;;;;;;;;4369359;32;20073;-72
2021/08/24 01:34:45;;;;;;;6.00;4.50;;;;;;;;;;4365975;32;20496;-71
2021/08/24 01:37:19;;;;;;;5.68;4.00;;;;;;;;;;4364214;32;20101;-72
2021/08/24 01:39:52;;;;;;;8.77;4.75;;;;;;;;;;4351748;32;20088;-70
2021/08/24 01:42:20;;;;;;;6.53;4.57;;;;;;;;;;4364468;32;20517;-73
2021/08/24 01:44:59;;;;;;;9.00;4.93;;;;;;;;;;4352109;32;20082;-72
2021/08/24 01:47:59;;;;;;;6.55;4.50;;;;;;;;;;4377682;32;20441;-72
2021/08/24 01:50:32;;;;;;;8.05;4.50;;;;;;;;;;4365875;32;20159;-71
2021/08/24 01:53:11;;;;;;;7.97;4.87;;;;;;;;;;4363571;32;20082;-72
2021/08/24 01:55:42;;;;;;;7.25;4.72;;;;;;;;;;4339384;32;20061;-72
2021/08/24 01:58:13;;;;;;;8.07;5.15;;;;;;;;;;4351443;32;20077;-72
2021/08/24 02:00:42;;;;;;;6.05;4.90;;;;;;;;;;4339463;32;20145;-73
2021/08/24 02:03:10;;;;;;;7.28;4.28;;;;;;;;;;4351185;32;20080;-72
2021/08/24 02:05:50;;;;;;;8.02;5.07;;;;;;;;;;4351285;32;20508;-71
2021/08/24 02:08:19;;;;;;;6.90;4.60;;;;;;;;;;4350783;32;20518;-71
2021/08/24 02:10:46;;;;;;;9.05;4.55;;;;;;;;;;4326855;32;20152;-72
2021/08/24 02:13:14;;;;;;;7.05;4.28;;;;;;;;;;4351306;32;20070;-71
2021/08/24 02:15:53;;;;;;;7.85;4.93;;;;;;;;;;4351247;32;20097;-71
2021/08/24 02:18:28;;;;;;;8.05;5.03;;;;;;;;;;4338419;32;20104;-71
2021/08/24 02:21:01;;;;;;;7.62;4.07;;;;;;;;;;4363320;32;20169;-72
2021/08/24 02:23:29;;;;;;;7.22;5.03;;;;;;;;;;4339764;32;20158;-71
2021/08/24 02:25:57;;;;;;;8.30;5.55;;;;;;;;;;4356297;32;20074;-71
2021/08/24 02:28:30;;;;;;;9.43;5.18;;;;;;;;;;4359723;32;20070;-70
2021/08/24 02:31:01;;;;;;;8.27;5.53;;;;;;;;;;4383822;32;20097;-71
2021/08/24 02:33:32;;;;;;;12.85;6.82;;;;;;;;;;4358850;32;20067;-72
2021/08/24 02:35:59;;;;;;;9.18;5.87;;;;;;;;;;4366436;32;20070;-72
2021/08/24 02:38:28;;;;;;;9.00;5.53;;;;;;;;;;4370278;32;20080;-71
2021/08/24 02:41:07;;;;;;;8.25;4.97;;;;;;;;;;4370286;32;20063;-73
2021/08/24 02:43:47;;;;;;;8.35;4.90;;;;;;;;;;4369402;32;20070;-71
2021/08/24 02:46:24;;;;;;;7.72;4.95;;;;;;;;;;4379306;32;20066;-73
2021/08/24 02:49:17;;;;;;;9.70;5.35;;;;;;;;;;4351672;32;20085;-72
2021/08/24 02:51:45;;;;;;;7.82;4.78;;;;;;;;;;4338917;32;20077;-72
2021/08/24 02:54:35;;;;;;;7.87;4.68;;;;;;;;;;4351285;32;20124;-72
2021/08/24 02:57:02;;;;;;;6.85;4.97;;;;;;;;;;4376249;32;20162;-72
2021/08/24 02:59:29;;;;;;;11.07;5.30;;;;;;;;;;4350829;32;20098;-71
2021/08/24 03:01:56;;;;;;;10.23;5.57;;;;;;;;;;4376555;32;20531;-71
2021/08/24 03:04:22;;;;;;;7.32;5.05;;;;;;;;;;4350393;32;20067;-71
2021/08/24 03:06:54;;;;;;;7.82;5.70;;;;;;;;;;4351115;32;20082;-72
2021/08/24 03:09:22;;;;;;;9.60;5.37;;;;;;;;;;4338847;32;20089;-72
2021/08/24 03:12:10;;;;;;;10.23;5.30;;;;;;;;;;4326064;32;20089;-72
2021/08/24 03:14:52;;;;;;;8.48;5.12;;;;;;;;;;4364934;32;20166;-71
2021/08/24 03:17:27;;;;;;;8.80;5.15;;;;;;;;;;4336830;32;20084;-72
2021/08/24 03:19:53;;;;;;;6.28;4.75;;;;;;;;;;4348341;32;20078;-70
2021/08/24 03:22:20;;;;;;;8.65;5.37;;;;;;;;;;4347488;32;20543;-71
2021/08/24 03:24:47;;;;;;;8.90;5.68;;;;;;;;;;4335349;32;20097;-71
2021/08/24 03:27:13;;;;;;;10.48;5.82;;;;;;;;;;4347766;32;20078;-71
2021/08/24 03:29:40;;;;;;;9.10;5.37;;;;;;;;;;4365975;32;20070;-71
2021/08/24 03:32:07;;;;;;;8.75;5.40;;;;;;;;;;4352889;32;20107;-72
2021/08/24 03:34:33;;;;;;;7.60;6.05;;;;;;;;;;4363398;32;20175;-72
2021/08/24 03:37:00;;;;;;;9.32;5.28;;;;;;;;;;4352895;32;20090;-72
2021/08/24 03:39:27;;;;;;;7.35;4.55;;;;;;;;;;4350549;32;20460;-72
2021/08/24 03:41:54;;;;;;;7.87;5.32;;;;;;;;;;4361994;32;20082;-72
2021/08/24 03:44:20;;;;;;;10.60;6.15;;;;;;;;;;4348464;32;20520;-72
2021/08/24 03:46:47;;;;;;;8.95;5.15;;;;;;;;;;4362849;32;20081;-72
2021/08/24 03:49:13;;;;;;;9.32;5.90;;;;;;;;;;4347972;32;20086;-72
2021/08/24 03:51:40;;;;;;;9.68;5.68;;;;;;;;;;4347979;32;20086;-71
2021/08/24 03:54:06;;;;;;;8.77;5.35;;;;;;;;;;4347896;32;20081;-71
2021/08/24 03:56:33;;;;;;;8.38;4.87;;;;;;;;;;4359840;32;20071;-72
2021/08/24 03:58:59;;;;;;;7.68;4.82;;;;;;;;;;4347576;32;20449;-72
2021/08/24 04:01:26;;;;;;;8.98;5.43;;;;;;;;;;4360206;32;20063;-71
2021/08/24 04:03:52;;;;;;;9.15;5.80;;;;;;;;;;4347364;32;20073;-71
2021/08/24 04:06:19;;;;;;;8.25;4.93;;;;;;;;;;4347043;32;20505;-72
2021/08/24 04:08:45;;;;;;;9.20;5.10;;;;;;;;;;4347629;32;20162;-72
2021/08/24 04:11:12;;;;;;;9.93;6.00;;;;;;;;;;4335531;32;20067;-71
2021/08/24 04:13:38;;;;;;;9.30;5.90;;;;;;;;;;4359797;32;20090;-72
2021/08/24 04:16:07;;;;;;;8.32;5.47;;;;;;;;;;4362807;32;20538;-71
2021/08/24 04:18:33;;;;;;;8.60;6.20;;;;;;;;;;4340772;32;20073;-72
2021/08/24 04:21:00;;;;;;;8.23;5.90;;;;;;;;;;4351637;32;20062;-71
2021/08/24 04:23:27;;;;;;;8.75;5.60;;;;;;;;;;4340693;32;20165;-71
2021/08/24 04:25:54;;;;;;;9.82;5.68;;;;;;;;;;4352809;32;20089;-72
2021/08/24 04:28:20;;;;;;;9.25;6.65;;;;;;;;;;4364502;32;20677;-70
2021/08/24 04:30:47;;;;;;;9.75;6.57;;;;;;;;;;4364881;32;20532;-72
2021/08/24 04:33:14;;;;;;;8.57;6.20;;;;;;;;;;4352871;32;20080;-72
2021/08/24 04:35:40;;;;;;;7.80;5.65;;;;;;;;;;4352722;32;20507;-72
2021/08/24 04:38:07;;;;;;;10.20;6.68;;;;;;;;;;4352451;32;20097;-71
2021/08/24 04:40:33;;;;;;;8.52;6.57;;;;;;;;;;4364405;32;20062;-72
2021/08/24 04:43:00;;;;;;;8.15;4.85;;;;;;;;;;4364400;32;20090;-71
2021/08/24 04:45:26;;;;;;;8.75;5.57;;;;;;;;;;4364736;32;20531;-71
2021/08/24 04:47:53;;;;;;;9.18;6.18;;;;;;;;;;4352579;32;20066;-71
2021/08/24 04:50:19;;;;;;;10.63;6.20;;;;;;;;;;4378175;32;20505;-70
2021/08/24 04:52:46;;;;;;;8.68;6.12;;;;;;;;;;4339825;32;20511;-72
2021/08/24 04:55:13;;;;;;;9.52;5.30;;;;;;;;;;4339991;32;20073;-72
2021/08/24 04:57:39;;;;;;;9.50;6.45;;;;;;;;;;4339994;32;20062;-72
2021/08/24 05:00:06;;;;;;;8.18;5.03;;;;;;;;;;4364835;32;20500;-71
2021/08/24 05:02:33;;;;;;;8.45;6.45;;;;;;;;;;4378420;32;20070;-72
2021/08/24 05:04:59;;;;;;;8.63;5.90;;;;;;;;;;4352056;32;20062;-71
2021/08/24 05:07:28;;;;;;;8.57;6.05;;;;;;;;;;4364104;32;20084;-72
2021/08/24 05:09:55;;;;;;;11.23;6.70;;;;;;;;;;4364470;32;20151;-71
2021/08/24 05:12:21;;;;;;;8.85;6.40;;;;;;;;;;4364813;32;20090;-72
2021/08/24 05:14:47;;;;;;;9.00;6.87;;;;;;;;;;4352075;32;20085;-72
2021/08/24 05:17:14;;;;;;;9.50;5.95;;;;;;;;;;4336641;32;20078;-72
2021/08/24 05:19:40;;;;;;;9.88;6.10;;;;;;;;;;4361592;32;20082;-73
2021/08/24 05:22:07;;;;;;;8.60;6.47;;;;;;;;;;4362837;32;20090;-72
2021/08/24 05:24:34;;;;;;;9.15;5.55;;;;;;;;;;4361189;32;20069;-72
2021/08/24 05:27:02;;;;;;;10.57;5.65;;;;;;;;;;4324987;32;20078;-73
2021/08/24 05:29:29;;;;;;;10.25;5.53;;;;;;;;;;4349280;32;20509;-72
2021/08/24 05:31:55;;;;;;;7.03;5.12;;;;;;;;;;4361393;32;20074;-72
2021/08/24 05:34:22;;;;;;;8.90;6.35;;;;;;;;;;4361197;32;20113;-72
2021/08/24 05:36:48;;;;;;;11.02;6.40;;;;;;;;;;4361226;32;20101;-72
2021/08/24 05:39:15;;;;;;;7.80;5.55;;;;;;;;;;4361032;32;20646;-71
2021/08/24 05:41:41;;;;;;;10.80;6.50;;;;;;;;;;4362980;32;20070;-72
2021/08/24 05:44:08;;;;;;;10.25;5.95;;;;;;;;;;4336622;32;20493;-72
2021/08/24 05:46:35;;;;;;;12.70;6.93;;;;;;;;;;4361491;32;20093;-72
2021/08/24 05:49:02;;;;;;;11.98;6.00;;;;;;;;;;4348822;32;20171;-71
2021/08/24 05:51:28;;;;;;;10.90;6.20;;;;;;;;;;4336572;32;20089;-72
2021/08/24 05:53:55;;;;;;;9.73;6.00;;;;;;;;;;4349056;32;20440;-71
2021/08/24 05:56:23;;;;;;;9.77;6.15;;;;;;;;;;4348884;32;20150;-72
2021/08/24 05:58:51;;;;;;;11.27;6.47;;;;;;;;;;4361072;32;20086;-72
2021/08/24 06:01:23;;;;;;;8.10;5.45;;;;;;;;;;4361291;32;20159;-72
2021/08/24 06:03:49;;;;;;;13.50;6.37;;;;;;;;;;4349218;32;20097;-72
2021/08/24 06:06:29;;;;;;;11.68;6.20;;;;;;;;;;4360834;32;20622;-72
2021/08/24 06:08:56;;;;;;;8.20;5.32;;;;;;;;;;4349077;32;20168;-72
2021/08/24 06:11:27;;;;;;;10.00;6.07;;;;;;;;;;4350215;32;20089;-73
2021/08/24 06:13:55;;;;;;;11.65;6.62;;;;;;;;;;4349842;32;20081;-71
2021/08/24 06:16:21;;;;;;;11.68;6.62;;;;;;;;;;4350029;32;20074;-72
2021/08/24 06:18:48;;;;;;;10.80;6.20;;;;;;;;;;4351378;32;20085;-72
2021/08/24 06:21:14;;;;;;;9.35;5.55;;;;;;;;;;4350809;32;20252;-72
2021/08/24 06:23:41;;;;;;;6.95;4.87;;;;;;;;;;4338607;32;20100;-72
2021/08/24 06:26:08;;;;;;;8.23;5.70;;;;;;;;;;4339192;32;20449;-72
2021/08/24 06:28:34;;;;;;;10.50;6.28;;;;;;;;;;4350449;32;20078;-72
2021/08/24 06:31:01;;;;;;;10.50;6.25;;;;;;;;;;4362987;32;20163;-72
2021/08/24 06:33:30;;;;;;;8.68;5.65;;;;;;;;;;4363188;32;20173;-72
2021/08/24 06:35:57;;;;;;;11.05;5.65;;;;;;;;;;4363495;32;20072;-70
2021/08/24 06:38:23;;;;;;;8.45;5.47;;;;;;;;;;4337856;32;20569;-72
2021/08/24 06:40:50;;;;;;;10.07;5.75;;;;;;;;;;4363019;32;20097;-71
2021/08/24 06:43:16;;;;;;;9.80;5.68;;;;;;;;;;4362836;32;20081;-71
2021/08/24 06:45:43;;;;;;;12.05;6.20;;;;;;;;;;4350447;32;20081;-71
2021/08/24 06:48:09;;;;;;;8.60;6.22;;;;;;;;;;4338258;32;20083;-72
2021/08/24 06:50:36;;;;;;;7.40;5.25;;;;;;;;;;4362478;32;20442;-70
2021/08/24 06:53:03;;;;;;;9.68;5.25;;;;;;;;;;4350642;32;20177;-72
2021/08/24 06:55:32;;;;;;;9.63;5.97;;;;;;;;;;4350278;32;20500;-67
2021/08/24 06:58:00;;;;;;;9.57;5.20;;;;;;;;;;4338792;32;20217;-72
2021/08/24 07:00:27;;;;;;;7.25;5.35;;;;;;;;;;4338562;32;20074;-71
2021/08/24 07:02:54;;;;;;;7.75;5.65;;;;;;;;;;4362395;32;20077;-71
2021/08/24 07:05:24;;;;;;;8.07;5.43;;;;;;;;;;4355182;32;20069;-75
2021/08/24 07:07:50;;;;;;;8.32;5.35;;;;;;;;;;4350172;32;20093;-76
2021/08/24 07:10:17;;;;;;;7.57;5.32;;;;;;;;;;4337987;32;20082;-78
2021/08/24 07:12:44;;;;;;;8.25;5.47;;;;;;;;;;4359829;32;20076;-73
2021/08/24 07:15:11;;;;;;;7.18;5.70;;;;;;;;;;4365134;32;20116;-75
2021/08/24 07:17:38;;;;;;;6.97;5.20;;;;;;;;;;4336826;32;20105;-77
2021/08/24 07:20:09;;;;;;;9.38;5.32;;;;;;;;;;4382266;32;20054;-74
2021/08/24 07:22:36;;;;;;;8.40;4.95;;;;;;;;;;4338806;32;20073;-79
2021/08/24 07:25:04;;;;;;;10.55;5.57;;;;;;;;;;4358836;32;20089;-76
2021/08/24 07:27:31;;;;;;;10.55;5.82;;;;;;;;;;4349221;32;20190;-80
2021/08/24 07:29:57;;;;;;;8.10;5.57;;;;;;;;;;4338858;32;20517;-78
2021/08/24 07:32:24;;;;;;;10.60;5.57;;;;;;;;;;4353771;32;20073;-77
2021/08/24 07:34:50;;;;;;;13.45;5.85;;;;;;;;;;4342442;32;20097;-76
2021/08/24 07:37:17;;;;;;;7.50;5.28;;;;;;;;;;4350051;32;20062;-77
2021/08/24 07:39:43;;;;;;;8.32;5.40;;;;;;;;;;4360951;32;20460;-74
2021/08/24 07:42:10;;;;;;;6.55;5.30;;;;;;;;;;4340411;32;20147;-75
2021/08/24 07:44:37;;;;;;;8.25;5.28;;;;;;;;;;4364232;32;20068;-76
2021/08/24 07:47:07;;;;;;;6.82;5.18;;;;;;;;;;4346250;32;20078;-79
2021/08/24 07:49:35;;;;;;;7.93;5.22;;;;;;;;;;4349929;32;20428;-78
2021/08/24 07:52:06;;;;;;;10.32;5.25;;;;;;;;;;4342218;32;20076;-76
2021/08/24 07:54:33;;;;;;;8.80;5.57;;;;;;;;;;4340308;32;20099;-77
2021/08/24 07:56:59;;;;;;;7.87;5.30;;;;;;;;;;4361041;32;20077;-76
2021/08/24 07:59:26;;;;;;;6.53;5.05;;;;;;;;;;4362487;32;20089;-74
2021/08/24 08:01:54;;;;;;;10.82;5.25;;;;;;;;;;4377211;32;20078;-77
2021/08/24 08:04:22;;;;;;;8.90;5.35;;;;;;;;;;4348197;32;20162;-69
2021/08/24 08:06:48;;;;;;;8.50;5.35;;;;;;;;;;4334992;32;20054;-72
2021/08/24 08:09:15;;;;;;;7.55;5.03;;;;;;;;;;4340099;32;20063;-76
2021/08/24 08:11:42;;;;;;;9.88;4.80;;;;;;;;;;4376556;32;20489;-76
2021/08/24 08:14:09;;;;;;;9.20;4.95;;;;;;;;;;4369847;32;20089;-77
2021/08/24 08:16:36;;;;;;;7.87;5.30;;;;;;;;;;4354259;32;20066;-79
2021/08/24 08:19:03;;;;;;;7.12;4.93;;;;;;;;;;4333651;32;20069;-72
2021/08/24 08:21:30;;;;;;;11.05;5.62;;;;;;;;;;4352647;32;20074;-74
2021/08/24 08:23:57;;;;;;;9.75;4.95;;;;;;;;;;4343875;32;20097;-72
2021/08/24 08:26:23;;;;;;;9.32;4.87;;;;;;;;;;4372151;32;20093;-72
2021/08/24 08:28:51;;;;;;;8.95;5.30;;;;;;;;;;4354316;32;20420;-74
2021/08/24 08:31:17;;;;;;;7.05;4.65;;;;;;;;;;4364315;32;20072;-76
2021/08/24 08:33:44;;;;;;;7.60;5.53;;;;;;;;;;4328339;32;20512;-79
2021/08/24 08:36:10;;;;;;;7.50;5.07;;;;;;;;;;4339359;32;20162;-74
2021/08/24 08:38:37;;;;;;;6.87;4.90;;;;;;;;;;4360279;32;20499;-75
2021/08/24 08:41:09;;;;;;;7.82;5.05;;;;;;;;;;4379573;32;20221;-79
2021/08/24 08:43:56;;;;;;;7.10;4.87;;;;;;;;;;4352636;32;20081;-71
2021/08/24 08:47:00;;;;;;;6.65;4.87;;;;;;;;;;4356793;32;20148;-75
2021/08/24 08:49:36;;;;;;;6.30;4.85;;;;;;;;;;4368296;32;20055;-74
2021/08/24 08:52:24;;;;;;;7.28;4.90;;;;;;;;;;4361315;32;20476;-74
2021/08/24 08:55:06;;;;;;;8.63;5.10;;;;;;;;;;4371973;32;20116;-75
2021/08/24 08:57:37;;;;;;;7.75;5.20;;;;;;;;;;4352071;32;20062;-73
2021/08/24 09:00:21;;;;;;;10.73;5.93;;;;;;;;;;4360621;32;20500;-77
2021/08/24 09:02:53;;;;;;;8.05;5.57;;;;;;;;;;4349586;32;20097;-76
2021/08/24 09:05:23;;;;;;;8.73;5.70;;;;;;;;;;4350687;32;20468;-76
2021/08/24 09:07:57;;;;;;;8.60;6.03;;;;;;;;;;4359073;32;20156;-78
2021/08/24 09:10:29;;;;;;;9.90;6.10;;;;;;;;;;4337170;32;20567;-75
2021/08/24 09:13:08;;;;;;;12.32;5.65;;;;;;;;;;4366714;32;20062;-74
2021/08/24 09:15:43;;;;;;;11.48;5.78;;;;;;;;;;4366291;32;20189;-75
2021/08/24 09:18:23;;;;;;;9.27;6.20;;;;;;;;;;4337802;32;20083;-75
2021/08/24 09:21:11;;;;;;;8.52;5.70;;;;;;;;;;4345738;32;20520;-77
2021/08/24 09:23:37;;;;;;;7.62;4.93;;;;;;;;;;4363282;32;20102;-76
2021/08/24 09:26:19;;;;;;;7.35;5.10;;;;;;;;;;4382360;32;20093;-76
2021/08/24 09:28:45;;;;;;;10.18;5.65;;;;;;;;;;4376071;32;20162;-77
2021/08/24 09:31:15;;;;;;;7.22;5.55;;;;;;;;;;4351494;32;20074;-75
2021/08/24 09:33:42;;;;;;;8.02;5.22;;;;;;;;;;4363886;32;20527;-75
2021/08/24 09:36:09;;;;;;;8.73;5.70;;;;;;;;;;4364228;32;20074;-75
2021/08/24 09:38:47;;;;;;;8.23;5.43;;;;;;;;;;4363164;32;20081;-76
2021/08/24 09:41:28;;;;;;;7.75;5.70;;;;;;;;;;4363906;32;20122;-75
2021/08/24 09:43:57;;;;;;;8.20;5.00;;;;;;;;;;4361103;32;20067;-75
2021/08/24 09:46:30;;;;;;;8.32;5.55;;;;;;;;;;4339530;32;20073;-77
2021/08/24 09:49:03;;;;;;;9.18;5.53;;;;;;;;;;4351707;32;20155;-75
2021/08/24 09:51:39;;;;;;;7.25;5.22;;;;;;;;;;4364106;32;20069;-75
2021/08/24 09:54:26;;;;;;;8.48;5.43;;;;;;;;;;4363409;32;20511;-77
2021/08/24 09:56:56;;;;;;;8.15;5.43;;;;;;;;;;4367414;32;20078;-64
2021/08/24 09:59:33;;;;;;;7.72;5.62;;;;;;;;;;4345571;32;20456;-66
2021/08/24 10:02:00;;;;;;;9.88;6.10;;;;;;;;;;4361667;32;20101;-64
2021/08/24 10:04:26;;;;;;;7.00;5.50;;;;;;;;;;4368876;32;20065;-64
2021/08/24 10:07:02;;;;;;;8.98;5.50;;;;;;;;;;4354634;32;20154;-66
2021/08/24 10:09:31;;;;;;;8.38;5.70;;;;;;;;;;4365771;32;20105;-64
2021/08/24 10:12:21;;;;;;;10.98;5.37;;;;;;;;;;4361002;32;20082;-64
2021/08/24 10:14:51;;;;;;;7.30;5.43;;;;;;;;;;4366980;32;20077;-61
2021/08/24 10:17:34;;;;;;;9.80;5.15;;;;;;;;;;4380477;32;20206;-68
2021/08/24 10:20:16;;;;;;;10.18;5.15;;;;;;;;;;4360575;32;20073;-65
2021/08/24 10:22:50;;;;;;;7.12;5.10;;;;;;;;;;4356983;32;20516;-62
2021/08/24 10:25:22;;;;;;;8.02;5.28;;;;;;;;;;4370319;32;20249;-64
2021/08/24 10:28:13;;;;;;;7.50;4.75;;;;;;;;;;4355552;32;20084;-63
2021/08/24 10:30:41;;;;;;;9.68;5.25;;;;;;;;;;4359792;32;20456;-64
2021/08/24 10:33:15;;;;;;;8.75;5.72;;;;;;;;;;4370264;32;20070;-62
2021/08/24 10:35:41;;;;;;;8.93;5.15;;;;;;;;;;4355522;32;20106;-63
2021/08/24 10:38:14;;;;;;;6.68;5.70;;;;;;;;;;4358331;32;20129;-70
2021/08/24 10:40:42;;;;;;;8.38;5.62;;;;;;;;;;4357470;32;20093;-63
2021/08/24 10:43:14;;;;;;;7.18;5.55;;;;;;;;;;4358605;32;20077;-64
2021/08/24 10:45:43;;;;;;;7.55;5.87;;;;;;;;;;4367762;32;20093;-63
2021/08/24 10:48:17;;;;;;;13.30;5.95;;;;;;;;;;4347504;32;20070;-62
2021/08/24 10:51:21;;;;;;;9.27;6.07;;;;;;;;;;4346849;32;20073;-62
2021/08/24 10:54:18;;;;;;;8.90;5.62;;;;;;;;;;4383339;32;20441;-64
2021/08/24 10:57:08;;;;;;;7.87;5.30;;;;;;;;;;4344533;32;20117;-65
2021/08/24 10:59:38;;;;;;;7.37;4.95;;;;;;;;;;4361451;32;20094;-63
2021/08/24 11:02:31;;;;;;;10.68;5.32;;;;;;;;;;4347467;32;20120;-65
2021/08/24 11:05:24;;;;;;;9.07;5.10;;;;;;;;;;4334355;32;20070;-65
2021/08/24 11:08:21;;;;;;;7.65;5.25;;;;;;;;;;4362812;32;20175;-67
2021/08/24 11:11:25;;;;;;;9.95;5.18;;;;;;;;;;4355750;32;20660;-62
2021/08/24 11:14:21;;;;;;;8.70;5.40;;;;;;;;;;4341027;32;20096;-64
2021/08/24 11:17:17;;;;;;;13.32;5.05;;;;;;;;;;4365371;32;20513;-63
2021/08/24 11:19:49;;;;;;;7.80;4.82;;;;;;;;;;4352024;32;20159;-62
2021/08/24 11:22:27;;;;;;;9.80;5.62;;;;;;;;;;4363393;32;20143;-65
2021/08/24 11:25:18;;;;;;;9.15;5.50;;;;;;;;;;4366277;32;20078;-64
2021/08/24 11:28:04;;;;;;;6.75;5.55;;;;;;;;;;4376459;32;20073;-64
2021/08/24 11:30:47;;;;;;;10.48;5.50;;;;;;;;;;4364404;32;20131;-73
2021/08/24 11:33:23;;;;;;;7.95;5.10;;;;;;;;;;4354210;32;20173;-65
2021/08/24 11:35:50;;;;;;;8.35;5.37;;;;;;;;;;4354538;32;20566;-65
2021/08/24 11:38:28;;;;;;;9.77;5.57;;;;;;;;;;4349416;32;20114;-64
2021/08/24 11:41:01;;;;;;;7.35;5.35;;;;;;;;;;4333320;32;20139;-63
2021/08/24 11:43:36;;;;;;;8.57;5.70;;;;;;;;;;4340879;32;20058;-66
2021/08/24 11:46:06;;;;;;;7.33;5.00;;;;;;;;;;4346298;32;20109;-67
2021/08/24 11:48:35;;;;;;;9.43;5.18;;;;;;;;;;4354791;32;20077;-64
2021/08/24 11:51:07;;;;;;;7.18;5.40;;;;;;;;;;4363601;32;20117;-65
2021/08/24 11:53:50;;;;;;;8.10;5.25;;;;;;;;;;4381033;32;20096;-66
2021/08/24 11:56:41;;;;;;;7.82;5.53;;;;;;;;;;4362055;32;20181;-65
2021/08/24 11:59:33;;;;;;;7.60;5.05;;;;;;;;;;4375824;32;20069;-64
2021/08/24 12:02:03;;;;;;;8.02;5.43;;;;;;;;;;4339375;32;20567;-66
2021/08/24 12:04:32;;;;;;;7.35;5.40;;;;;;;;;;4354080;32;20117;-67
2021/08/24 12:07:06;;;;;;;10.77;6.15;;;;;;;;;;4353447;32;20483;-64
2021/08/24 12:09:47;;;;;;;6.90;4.82;;;;;;;;;;4360024;32;20086;-66
2021/08/24 12:12:30;;;;;;;11.25;5.35;;;;;;;;;;4351668;32;20206;-64
2021/08/24 12:15:09;;;;;;;7.30;4.97;;;;;;;;;;4363177;32;20109;-65
2021/08/24 12:17:36;;;;;;;7.97;5.05;;;;;;;;;;4337172;32;20538;-64
2021/08/24 12:20:07;;;;;;;8.48;5.10;;;;;;;;;;4348623;32;20098;-62
2021/08/24 12:23:03;;;;;;;11.10;5.50;;;;;;;;;;4381531;32;20201;-65
2021/08/24 12:25:41;;;;;;;7.95;5.37;;;;;;;;;;4342414;32;20154;-64
2021/08/24 12:28:16;;;;;;;10.90;5.20;;;;;;;;;;4350066;32;20113;-65
2021/08/24 12:30:58;;;;;;;9.73;4.60;;;;;;;;;;4377541;32;20105;-66
2021/08/24 12:33:38;;;;;;;6.80;5.10;;;;;;;;;;4375751;32;20090;-67
2021/08/24 12:36:19;;;;;;;8.48;4.97;;;;;;;;;;4362091;32;20161;-65
2021/08/24 12:38:51;;;;;;;9.13;5.20;;;;;;;;;;4356445;32;20114;-65
2021/08/24 12:41:45;;;;;;;7.95;5.22;;;;;;;;;;4348567;32;20129;-66
2021/08/24 12:44:16;;;;;;;10.00;4.50;;;;;;;;;;4355878;32;20185;-65
2021/08/24 12:46:48;;;;;;;6.30;4.78;;;;;;;;;;4370624;32;20177;-65
2021/08/24 12:49:15;;;;;;;8.68;5.03;;;;;;;;;;4360000;32;20070;-63
2021/08/24 12:51:50;;;;;;;7.62;5.12;;;;;;;;;;4370577;32;20092;-64
2021/08/24 12:54:19;;;;;;;8.15;5.10;;;;;;;;;;4372547;32;20062;-66
2021/08/24 12:56:47;;;;;;;11.55;5.90;;;;;;;;;;4365267;32;20116;-69
2021/08/24 12:59:33;;;;;;;6.65;5.12;;;;;;;;;;4351535;32;20074;-66
2021/08/24 13:02:33;;;;;;;8.85;5.00;;;;;;;;;;4368538;32;20104;-66
2021/08/24 13:05:27;;;;;;;7.40;4.97;;;;;;;;;;4341124;32;20174;-67
2021/08/24 13:08:23;;;;;;;8.93;4.70;;;;;;;;;;4367209;32;20082;-68
2021/08/24 13:10:53;;;;;;;7.93;5.22;;;;;;;;;;4348798;32;20145;-65
2021/08/24 13:13:30;;;;;;;8.40;5.20;;;;;;;;;;4347719;32;20066;-69
2021/08/24 13:16:13;;;;;;;7.32;5.12;;;;;;;;;;4371230;32;20153;-68
2021/08/24 13:18:50;;;;;;;7.93;5.15;;;;;;;;;;4346231;32;20077;-69
2021/08/24 13:21:42;;;;;;;8.52;5.05;;;;;;;;;;4358773;32;20514;-70
2021/08/24 13:24:29;;;;;;;6.85;4.90;;;;;;;;;;4378353;32;20088;-66
2021/08/24 13:26:56;;;;;;;;;;;;;;;;;;4359806;32;20070;-68
2021/08/24 13:29:26;;;;;;;8.23;5.10;;;;;;;;;;4374605;32;19953;-67
2021/08/24 13:31:59;;;;;;;7.25;5.30;;;;;;;;;;4376543;32;20071;-68
2021/08/24 13:34:44;;;;;;;7.62;5.30;;;;;;;;;;4365737;32;20157;-66
2021/08/24 13:37:11;;;;;;;9.60;5.55;;;;;;;;;;4373518;32;20084;-65
2021/08/24 13:40:24;;;;;;;7.53;5.28;;;;;;;;;;4348763;32;20101;-63
2021/08/24 13:42:50;;;;;;;7.07;5.20;;;;;;;;;;4322992;32;20502;-66
2021/08/24 13:45:25;;;;;;;8.90;5.25;;;;;;;;;;4344795;32;20114;-65
2021/08/24 13:47:53;;;;;;;8.27;5.15;;;;;;;;;;4362040;32;20155;-66
2021/08/24 13:50:40;;;;;;;7.82;4.90;;;;;;;;;;4347936;32;20153;-65
2021/08/24 13:53:19;;;;;;;8.15;5.53;;;;;;;;;;4367890;32;20093;-62
2021/08/24 13:55:55;;;;;;;11.57;5.65;;;;;;;;;;4369886;32;20074;-65
2021/08/24 13:58:38;;;;;;;14.95;5.40;;;;;;;;;;4361147;32;20517;-65
2021/08/24 14:01:23;;;;;;;11.48;5.18;;;;;;;;;;4368635;32;20152;-66
2021/08/24 14:04:08;;;;;;;10.47;4.97;;;;;;;;;;4345031;32;20457;-68
2021/08/24 14:06:36;;;;;;;8.82;4.82;;;;;;;;;;4350159;32;20640;-68
2021/08/24 14:09:17;;;;;;;7.65;4.70;;;;;;;;;;4332803;32;20082;-63
2021/08/24 14:11:47;;;;;;;17.35;5.18;;;;;;;;;;4347375;32;20077;-63
2021/08/24 14:14:14;;;;;;;13.77;5.30;;;;;;;;;;4341943;32;20599;-63
2021/08/24 14:16:41;;;;;;;14.60;5.25;;;;;;;;;;4365028;32;20085;-64
2021/08/24 14:19:28;;;;;;;9.32;4.75;;;;;;;;;;4347788;32;20066;-65
2021/08/24 14:22:04;;;;;;;9.85;4.70;;;;;;;;;;4357243;32;20129;-63
2021/08/24 14:24:32;;;;;;;8.50;4.95;;;;;;;;;;4346520;32;20109;-66
2021/08/24 14:26:59;;;;;;;8.25;4.32;;;;;;;;;;4369172;32;20076;-67
2021/08/24 14:29:26;;;;;;;10.63;4.90;;;;;;;;;;4354726;32;20178;-66
2021/08/24 14:31:55;;;;;;;8.55;4.93;;;;;;;;;;4360073;32;20149;-67
2021/08/24 14:34:29;;;;;;;8.95;4.62;;;;;;;;;;4350918;32;20108;-66
2021/08/24 14:37:03;;;;;;;7.95;4.70;;;;;;;;;;4366340;32;20158;-64
2021/08/24 14:39:37;;;;;;;9.80;4.25;;;;;;;;;;4348468;32;20548;-64
2021/08/24 14:42:05;;;;;;;9.57;4.53;;;;;;;;;;4357660;32;20117;-78
2021/08/24 14:44:39;;;;;;;8.98;5.03;;;;;;;;;;4338669;32;20548;-75
2021/08/24 14:47:29;;;;;;;15.00;4.65;;;;;;;;;;4363555;32;20478;-75
2021/08/24 14:49:56;;;;;;;9.18;4.47;;;;;;;;;;4379057;32;20113;-75
2021/08/24 14:52:28;;;;;;;9.73;5.00;;;;;;;;;;4364864;32;20519;-73
2021/08/24 14:55:03;;;;;;;8.63;4.72;;;;;;;;;;4364754;32;20663;-75
2021/08/24 14:57:33;;;;;;;11.20;4.62;;;;;;;;;;4352118;32;20518;-75
2021/08/24 15:00:24;;;;;;;7.72;4.70;;;;;;;;;;4365514;32;20496;-73
2021/08/24 15:02:59;;;;;;;12.10;5.45;;;;;;;;;;4377411;32;20167;-75
2021/08/24 15:05:43;;;;;;;9.15;4.62;;;;;;;;;;4377621;32;20511;-75
2021/08/24 15:08:13;;;;;;;8.60;4.72;;;;;;;;;;4376279;32;20152;-75
2021/08/24 15:11:04;;;;;;;8.60;4.28;;;;;;;;;;4376902;32;20101;-75
2021/08/24 15:13:33;;;;;;;6.97;4.80;;;;;;;;;;4377734;32;20074;-75
2021/08/24 15:16:14;;;;;;;9.02;4.60;;;;;;;;;;4354096;32;20101;-74